sensor_id;sensor_type;location;lat;lon;timestamp;P1;durP1;ratioP1;P2;durP2;ratioP2
23814;SDS011;12088;53.078;8.720;2024-02-28T00:02:03;74.50;;;29.23;;
23814;SDS011;12088;53.078;8.720;2024-02-28T00:04:29;76.60;;;30.30;;
23814;SDS011;12088;53.078;8.720;2024-02-28T00:06:55;79.70;;;28.93;;
23814;SDS011;12088;53.078;8.720;2024-02-28T00:09:21;75.43;;;29.03;;
23814;SDS011;12088;53.078;8.720;2024-02-28T00:11:47;87.07;;;30.60;;
23814;SDS011;12088;53.078;8.720;2024-02-28T00:14:13;84.50;;;30.17;;
23814;SDS011;12088;53.078;8.720;2024-02-28T00:16:40;78.83;;;29.10;;
23814;SDS011;12088;53.078;8.720;2024-02-28T00:19:06;64.43;;;25.80;;
23814;SDS011;12088;53.078;8.720;2024-02-28T00:21:32;62.07;;;25.03;;
23814;SDS011;12088;53.078;8.720;2024-02-28T00:23:58;64.80;;;27.27;;
23814;SDS011;12088;53.078;8.720;2024-02-28T00:26:24;64.27;;;26.70;;
23814;SDS011;12088;53.078;8.720;2024-02-28T00:28:50;66.20;;;27.10;;
23814;SDS011;12088;53.078;8.720;2024-02-28T00:31:16;61.57;;;25.70;;
23814;SDS011;12088;53.078;8.720;2024-02-28T00:33:42;66.07;;;26.93;;
23814;SDS011;12088;53.078;8.720;2024-02-28T00:36:08;63.33;;;26.57;;
23814;SDS011;12088;53.078;8.720;2024-02-28T00:38:34;65.60;;;25.87;;
23814;SDS011;12088;53.078;8.720;2024-02-28T00:41:00;57.00;;;24.87;;
23814;SDS011;12088;53.078;8.720;2024-02-28T00:43:26;55.73;;;23.57;;
23814;SDS011;12088;53.078;8.720;2024-02-28T00:45:52;63.30;;;25.17;;
23814;SDS011;12088;53.078;8.720;2024-02-28T00:48:20;67.90;;;26.37;;
23814;SDS011;12088;53.078;8.720;2024-02-28T00:50:46;71.43;;;28.53;;
23814;SDS011;12088;53.078;8.720;2024-02-28T00:53:12;75.97;;;28.97;;
23814;SDS011;12088;53.078;8.720;2024-02-28T00:55:38;82.73;;;30.90;;
23814;SDS011;12088;53.078;8.720;2024-02-28T00:58:04;86.40;;;31.83;;
23814;SDS011;12088;53.078;8.720;2024-02-28T01:00:30;76.80;;;28.37;;
23814;SDS011;12088;53.078;8.720;2024-02-28T01:02:56;65.77;;;27.03;;
23814;SDS011;12088;53.078;8.720;2024-02-28T01:05:22;66.33;;;26.97;;
23814;SDS011;12088;53.078;8.720;2024-02-28T01:07:48;63.50;;;26.93;;
23814;SDS011;12088;53.078;8.720;2024-02-28T01:10:14;63.73;;;26.40;;
23814;SDS011;12088;53.078;8.720;2024-02-28T01:12:40;54.73;;;23.87;;
23814;SDS011;12088;53.078;8.720;2024-02-28T01:15:06;66.83;;;26.67;;
23814;SDS011;12088;53.078;8.720;2024-02-28T01:17:32;56.57;;;24.43;;
23814;SDS011;12088;53.078;8.720;2024-02-28T01:19:58;55.80;;;25.20;;
23814;SDS011;12088;53.078;8.720;2024-02-28T01:22:24;59.90;;;26.17;;
23814;SDS011;12088;53.078;8.720;2024-02-28T01:24:50;61.13;;;25.60;;
23814;SDS011;12088;53.078;8.720;2024-02-28T01:27:16;60.57;;;24.97;;
23814;SDS011;12088;53.078;8.720;2024-02-28T01:29:42;63.10;;;26.70;;
23814;SDS011;12088;53.078;8.720;2024-02-28T01:32:08;63.97;;;26.33;;
23814;SDS011;12088;53.078;8.720;2024-02-28T01:34:34;68.53;;;26.23;;
23814;SDS011;12088;53.078;8.720;2024-02-28T01:37:00;61.23;;;25.93;;
23814;SDS011;12088;53.078;8.720;2024-02-28T01:39:26;65.67;;;25.40;;
23814;SDS011;12088;53.078;8.720;2024-02-28T01:41:53;55.93;;;22.63;;
23814;SDS011;12088;53.078;8.720;2024-02-28T01:44:20;49.77;;;21.70;;
23814;SDS011;12088;53.078;8.720;2024-02-28T01:46:46;68.00;;;26.67;;
23814;SDS011;12088;53.078;8.720;2024-02-28T01:49:12;60.90;;;23.10;;
23814;SDS011;12088;53.078;8.720;2024-02-28T01:51:39;54.53;;;22.80;;
23814;SDS011;12088;53.078;8.720;2024-02-28T01:54:05;65.20;;;24.93;;
23814;SDS011;12088;53.078;8.720;2024-02-28T01:56:31;70.23;;;27.63;;
23814;SDS011;12088;53.078;8.720;2024-02-28T01:58:58;69.57;;;25.77;;
23814;SDS011;12088;53.078;8.720;2024-02-28T02:01:25;67.80;;;26.57;;
23814;SDS011;12088;53.078;8.720;2024-02-28T02:03:52;70.43;;;26.93;;
23814;SDS011;12088;53.078;8.720;2024-02-28T02:06:18;77.37;;;28.03;;
23814;SDS011;12088;53.078;8.720;2024-02-28T02:08:44;81.67;;;28.30;;
23814;SDS011;12088;53.078;8.720;2024-02-28T02:11:11;85.83;;;29.07;;
23814;SDS011;12088;53.078;8.720;2024-02-28T02:13:47;81.37;;;27.70;;
23814;SDS011;12088;53.078;8.720;2024-02-28T02:16:13;76.43;;;27.23;;
23814;SDS011;12088;53.078;8.720;2024-02-28T02:18:39;71.53;;;27.40;;
23814;SDS011;12088;53.078;8.720;2024-02-28T02:21:05;79.43;;;27.00;;
23814;SDS011;12088;53.078;8.720;2024-02-28T02:23:32;76.53;;;27.63;;
23814;SDS011;12088;53.078;8.720;2024-02-28T02:25:58;71.40;;;26.13;;
23814;SDS011;12088;53.078;8.720;2024-02-28T02:28:24;69.63;;;26.40;;
23814;SDS011;12088;53.078;8.720;2024-02-28T02:30:50;62.40;;;25.47;;
23814;SDS011;12088;53.078;8.720;2024-02-28T02:33:16;66.33;;;26.43;;
23814;SDS011;12088;53.078;8.720;2024-02-28T02:35:42;71.47;;;27.20;;
23814;SDS011;12088;53.078;8.720;2024-02-28T02:38:08;69.20;;;26.20;;
23814;SDS011;12088;53.078;8.720;2024-02-28T02:40:34;65.27;;;25.73;;
23814;SDS011;12088;53.078;8.720;2024-02-28T02:42:59;71.80;;;28.03;;
23814;SDS011;12088;53.078;8.720;2024-02-28T02:45:25;80.30;;;29.90;;
23814;SDS011;12088;53.078;8.720;2024-02-28T02:47:51;87.93;;;33.13;;
23814;SDS011;12088;53.078;8.720;2024-02-28T02:50:17;87.13;;;32.33;;
23814;SDS011;12088;53.078;8.720;2024-02-28T02:52:43;77.53;;;29.70;;
23814;SDS011;12088;53.078;8.720;2024-02-28T02:55:09;73.50;;;30.37;;
23814;SDS011;12088;53.078;8.720;2024-02-28T02:57:35;66.20;;;27.93;;
23814;SDS011;12088;53.078;8.720;2024-02-28T03:00:01;64.33;;;27.60;;
23814;SDS011;12088;53.078;8.720;2024-02-28T03:02:27;69.90;;;28.17;;
23814;SDS011;12088;53.078;8.720;2024-02-28T03:04:53;68.00;;;27.03;;
23814;SDS011;12088;53.078;8.720;2024-02-28T03:07:19;67.30;;;27.47;;
23814;SDS011;12088;53.078;8.720;2024-02-28T03:09:45;62.70;;;26.77;;
23814;SDS011;12088;53.078;8.720;2024-02-28T03:12:11;59.97;;;26.87;;
23814;SDS011;12088;53.078;8.720;2024-02-28T03:14:37;58.50;;;25.30;;
23814;SDS011;12088;53.078;8.720;2024-02-28T03:17:03;61.83;;;26.47;;
23814;SDS011;12088;53.078;8.720;2024-02-28T03:19:29;66.43;;;27.17;;
23814;SDS011;12088;53.078;8.720;2024-02-28T03:21:55;66.70;;;28.40;;
23814;SDS011;12088;53.078;8.720;2024-02-28T03:24:21;68.43;;;29.10;;
23814;SDS011;12088;53.078;8.720;2024-02-28T03:26:47;64.80;;;27.53;;
23814;SDS011;12088;53.078;8.720;2024-02-28T03:29:13;62.77;;;25.93;;
23814;SDS011;12088;53.078;8.720;2024-02-28T03:31:39;65.77;;;25.70;;
23814;SDS011;12088;53.078;8.720;2024-02-28T03:34:05;60.40;;;27.07;;
23814;SDS011;12088;53.078;8.720;2024-02-28T03:36:31;64.20;;;26.50;;
23814;SDS011;12088;53.078;8.720;2024-02-28T03:38:57;58.13;;;25.60;;
23814;SDS011;12088;53.078;8.720;2024-02-28T03:41:23;56.97;;;26.37;;
23814;SDS011;12088;53.078;8.720;2024-02-28T03:43:49;62.03;;;26.13;;
23814;SDS011;12088;53.078;8.720;2024-02-28T03:46:15;60.07;;;26.13;;
23814;SDS011;12088;53.078;8.720;2024-02-28T03:48:41;54.93;;;24.87;;
23814;SDS011;12088;53.078;8.720;2024-02-28T03:51:07;56.77;;;25.37;;
23814;SDS011;12088;53.078;8.720;2024-02-28T03:53:33;57.50;;;24.47;;
23814;SDS011;12088;53.078;8.720;2024-02-28T03:55:59;57.27;;;25.27;;
23814;SDS011;12088;53.078;8.720;2024-02-28T03:58:25;59.67;;;24.50;;
23814;SDS011;12088;53.078;8.720;2024-02-28T04:00:51;54.93;;;24.47;;
23814;SDS011;12088;53.078;8.720;2024-02-28T04:03:17;62.50;;;25.83;;
23814;SDS011;12088;53.078;8.720;2024-02-28T04:05:43;60.57;;;25.43;;
23814;SDS011;12088;53.078;8.720;2024-02-28T04:08:09;56.17;;;23.27;;
23814;SDS011;12088;53.078;8.720;2024-02-28T04:10:35;58.73;;;25.67;;
23814;SDS011;12088;53.078;8.720;2024-02-28T04:13:01;55.57;;;24.03;;
23814;SDS011;12088;53.078;8.720;2024-02-28T04:15:27;63.57;;;25.57;;
23814;SDS011;12088;53.078;8.720;2024-02-28T04:17:53;67.97;;;26.47;;
23814;SDS011;12088;53.078;8.720;2024-02-28T04:20:19;65.00;;;25.60;;
23814;SDS011;12088;53.078;8.720;2024-02-28T04:22:45;63.03;;;26.40;;
23814;SDS011;12088;53.078;8.720;2024-02-28T04:25:11;73.60;;;28.43;;
23814;SDS011;12088;53.078;8.720;2024-02-28T04:27:37;68.00;;;27.97;;
23814;SDS011;12088;53.078;8.720;2024-02-28T04:30:04;73.23;;;28.93;;
23814;SDS011;12088;53.078;8.720;2024-02-28T04:32:30;72.17;;;29.07;;
23814;SDS011;12088;53.078;8.720;2024-02-28T04:34:56;72.77;;;28.47;;
23814;SDS011;12088;53.078;8.720;2024-02-28T04:37:22;75.10;;;29.10;;
23814;SDS011;12088;53.078;8.720;2024-02-28T04:39:48;71.93;;;28.13;;
23814;SDS011;12088;53.078;8.720;2024-02-28T04:42:15;75.47;;;29.23;;
23814;SDS011;12088;53.078;8.720;2024-02-28T04:44:41;84.57;;;29.97;;
23814;SDS011;12088;53.078;8.720;2024-02-28T04:47:07;69.27;;;27.10;;
23814;SDS011;12088;53.078;8.720;2024-02-28T04:49:36;79.73;;;28.90;;
23814;SDS011;12088;53.078;8.720;2024-02-28T04:52:03;72.20;;;27.53;;
23814;SDS011;12088;53.078;8.720;2024-02-28T04:54:29;69.33;;;27.87;;
23814;SDS011;12088;53.078;8.720;2024-02-28T04:56:55;72.33;;;27.87;;
23814;SDS011;12088;53.078;8.720;2024-02-28T04:59:21;65.97;;;25.93;;
23814;SDS011;12088;53.078;8.720;2024-02-28T05:01:47;75.70;;;27.80;;
23814;SDS011;12088;53.078;8.720;2024-02-28T05:04:13;78.20;;;29.40;;
23814;SDS011;12088;53.078;8.720;2024-02-28T05:06:39;77.83;;;30.43;;
23814;SDS011;12088;53.078;8.720;2024-02-28T05:09:05;83.93;;;29.73;;
23814;SDS011;12088;53.078;8.720;2024-02-28T05:11:31;81.23;;;30.33;;
23814;SDS011;12088;53.078;8.720;2024-02-28T05:13:58;81.40;;;30.60;;
23814;SDS011;12088;53.078;8.720;2024-02-28T05:16:24;86.70;;;31.33;;
23814;SDS011;12088;53.078;8.720;2024-02-28T05:18:49;93.77;;;31.97;;
23814;SDS011;12088;53.078;8.720;2024-02-28T05:21:15;93.63;;;31.63;;
23814;SDS011;12088;53.078;8.720;2024-02-28T05:23:41;91.20;;;32.37;;
23814;SDS011;12088;53.078;8.720;2024-02-28T05:26:07;88.83;;;32.07;;
23814;SDS011;12088;53.078;8.720;2024-02-28T05:28:34;93.97;;;33.43;;
23814;SDS011;12088;53.078;8.720;2024-02-28T05:31:18;107.70;;;34.73;;
23814;SDS011;12088;53.078;8.720;2024-02-28T05:33:45;115.07;;;33.50;;
23814;SDS011;12088;53.078;8.720;2024-02-28T05:36:11;109.37;;;34.07;;
23814;SDS011;12088;53.078;8.720;2024-02-28T05:38:37;107.87;;;35.43;;
23814;SDS011;12088;53.078;8.720;2024-02-28T05:41:03;106.23;;;34.40;;
23814;SDS011;12088;53.078;8.720;2024-02-28T05:43:29;108.87;;;34.67;;
23814;SDS011;12088;53.078;8.720;2024-02-28T05:45:55;131.67;;;37.97;;
23814;SDS011;12088;53.078;8.720;2024-02-28T05:48:21;137.73;;;36.57;;
23814;SDS011;12088;53.078;8.720;2024-02-28T05:50:47;137.97;;;38.20;;
23814;SDS011;12088;53.078;8.720;2024-02-28T05:53:15;128.97;;;37.90;;
23814;SDS011;12088;53.078;8.720;2024-02-28T05:55:41;143.87;;;38.80;;
23814;SDS011;12088;53.078;8.720;2024-02-28T05:58:10;137.10;;;37.50;;
23814;SDS011;12088;53.078;8.720;2024-02-28T06:00:36;155.43;;;41.03;;
23814;SDS011;12088;53.078;8.720;2024-02-28T06:03:02;146.90;;;40.33;;
23814;SDS011;12088;53.078;8.720;2024-02-28T06:05:28;205.27;;;40.27;;
23814;SDS011;12088;53.078;8.720;2024-02-28T06:07:54;172.53;;;36.53;;
23814;SDS011;12088;53.078;8.720;2024-02-28T06:10:20;164.63;;;36.27;;
23814;SDS011;12088;53.078;8.720;2024-02-28T06:12:46;144.93;;;34.43;;
23814;SDS011;12088;53.078;8.720;2024-02-28T06:15:12;134.30;;;35.03;;
23814;SDS011;12088;53.078;8.720;2024-02-28T06:17:38;130.57;;;36.10;;
23814;SDS011;12088;53.078;8.720;2024-02-28T06:20:04;140.87;;;38.23;;
23814;SDS011;12088;53.078;8.720;2024-02-28T06:22:31;134.37;;;33.97;;
23814;SDS011;12088;53.078;8.720;2024-02-28T06:24:57;146.73;;;35.07;;
23814;SDS011;12088;53.078;8.720;2024-02-28T06:27:23;151.43;;;36.20;;
23814;SDS011;12088;53.078;8.720;2024-02-28T06:29:49;139.70;;;35.47;;
23814;SDS011;12088;53.078;8.720;2024-02-28T06:32:15;146.57;;;38.67;;
23814;SDS011;12088;53.078;8.720;2024-02-28T06:34:41;150.50;;;36.33;;
23814;SDS011;12088;53.078;8.720;2024-02-28T06:37:07;139.20;;;37.80;;
23814;SDS011;12088;53.078;8.720;2024-02-28T06:39:33;132.03;;;36.93;;
23814;SDS011;12088;53.078;8.720;2024-02-28T06:41:59;118.47;;;33.70;;
23814;SDS011;12088;53.078;8.720;2024-02-28T06:44:25;117.60;;;33.67;;
23814;SDS011;12088;53.078;8.720;2024-02-28T06:46:51;119.13;;;33.07;;
23814;SDS011;12088;53.078;8.720;2024-02-28T06:49:17;99.53;;;30.47;;
23814;SDS011;12088;53.078;8.720;2024-02-28T06:51:43;101.40;;;30.23;;
23814;SDS011;12088;53.078;8.720;2024-02-28T06:54:10;115.80;;;31.47;;
23814;SDS011;12088;53.078;8.720;2024-02-28T06:56:36;98.13;;;28.87;;
23814;SDS011;12088;53.078;8.720;2024-02-28T06:59:02;102.23;;;30.63;;
23814;SDS011;12088;53.078;8.720;2024-02-28T07:01:29;100.97;;;31.53;;
23814;SDS011;12088;53.078;8.720;2024-02-28T07:03:55;102.50;;;29.37;;
23814;SDS011;12088;53.078;8.720;2024-02-28T07:06:21;98.83;;;30.47;;
23814;SDS011;12088;53.078;8.720;2024-02-28T07:08:47;94.77;;;29.13;;
23814;SDS011;12088;53.078;8.720;2024-02-28T07:11:13;99.00;;;30.60;;
23814;SDS011;12088;53.078;8.720;2024-02-28T07:13:39;89.17;;;29.23;;
23814;SDS011;12088;53.078;8.720;2024-02-28T07:16:06;94.00;;;30.37;;
23814;SDS011;12088;53.078;8.720;2024-02-28T07:18:32;97.33;;;30.93;;
23814;SDS011;12088;53.078;8.720;2024-02-28T07:20:58;87.50;;;29.33;;
23814;SDS011;12088;53.078;8.720;2024-02-28T07:23:24;90.40;;;29.10;;
23814;SDS011;12088;53.078;8.720;2024-02-28T07:25:50;89.67;;;28.57;;
23814;SDS011;12088;53.078;8.720;2024-02-28T07:28:16;84.17;;;28.73;;
23814;SDS011;12088;53.078;8.720;2024-02-28T07:30:42;86.73;;;27.93;;
23814;SDS011;12088;53.078;8.720;2024-02-28T07:33:10;74.77;;;27.20;;
23814;SDS011;12088;53.078;8.720;2024-02-28T07:35:45;72.57;;;26.17;;
23814;SDS011;12088;53.078;8.720;2024-02-28T07:38:11;69.70;;;26.27;;
23814;SDS011;12088;53.078;8.720;2024-02-28T07:40:37;64.77;;;25.83;;
23814;SDS011;12088;53.078;8.720;2024-02-28T07:43:03;69.10;;;24.20;;
23814;SDS011;12088;53.078;8.720;2024-02-28T07:45:29;65.33;;;24.63;;
23814;SDS011;12088;53.078;8.720;2024-02-28T07:47:55;72.43;;;25.43;;
23814;SDS011;12088;53.078;8.720;2024-02-28T07:50:21;63.40;;;23.87;;
23814;SDS011;12088;53.078;8.720;2024-02-28T07:52:47;62.30;;;23.60;;
23814;SDS011;12088;53.078;8.720;2024-02-28T07:55:13;67.90;;;24.40;;
23814;SDS011;12088;53.078;8.720;2024-02-28T07:57:39;55.97;;;21.80;;
23814;SDS011;12088;53.078;8.720;2024-02-28T08:00:05;50.77;;;21.33;;
23814;SDS011;12088;53.078;8.720;2024-02-28T08:02:31;50.10;;;21.53;;
23814;SDS011;12088;53.078;8.720;2024-02-28T08:04:58;44.67;;;19.10;;
23814;SDS011;12088;53.078;8.720;2024-02-28T08:07:24;44.60;;;20.00;;
23814;SDS011;12088;53.078;8.720;2024-02-28T08:09:51;42.67;;;19.67;;
23814;SDS011;12088;53.078;8.720;2024-02-28T08:12:17;45.90;;;19.73;;
23814;SDS011;12088;53.078;8.720;2024-02-28T08:14:43;47.03;;;19.87;;
23814;SDS011;12088;53.078;8.720;2024-02-28T08:17:09;40.73;;;18.23;;
23814;SDS011;12088;53.078;8.720;2024-02-28T08:19:35;44.40;;;17.97;;
23814;SDS011;12088;53.078;8.720;2024-02-28T08:22:01;39.93;;;18.13;;
23814;SDS011;12088;53.078;8.720;2024-02-28T08:24:27;41.43;;;18.67;;
23814;SDS011;12088;53.078;8.720;2024-02-28T08:26:53;40.50;;;19.10;;
23814;SDS011;12088;53.078;8.720;2024-02-28T08:29:20;46.87;;;19.77;;
23814;SDS011;12088;53.078;8.720;2024-02-28T08:31:46;41.17;;;19.37;;
23814;SDS011;12088;53.078;8.720;2024-02-28T08:34:12;42.27;;;17.87;;
23814;SDS011;12088;53.078;8.720;2024-02-28T08:36:38;35.80;;;17.07;;
23814;SDS011;12088;53.078;8.720;2024-02-28T08:39:04;41.20;;;19.10;;
23814;SDS011;12088;53.078;8.720;2024-02-28T08:41:33;40.17;;;18.53;;
23814;SDS011;12088;53.078;8.720;2024-02-28T08:43:59;42.10;;;18.33;;
23814;SDS011;12088;53.078;8.720;2024-02-28T08:46:25;36.87;;;17.67;;
23814;SDS011;12088;53.078;8.720;2024-02-28T08:48:51;39.50;;;18.40;;
23814;SDS011;12088;53.078;8.720;2024-02-28T08:51:20;37.80;;;18.07;;
23814;SDS011;12088;53.078;8.720;2024-02-28T08:53:46;35.67;;;17.57;;
23814;SDS011;12088;53.078;8.720;2024-02-28T08:56:12;32.57;;;16.73;;
23814;SDS011;12088;53.078;8.720;2024-02-28T08:58:38;35.27;;;16.93;;
23814;SDS011;12088;53.078;8.720;2024-02-28T09:01:05;33.53;;;17.07;;
23814;SDS011;12088;53.078;8.720;2024-02-28T09:03:31;34.53;;;16.43;;
23814;SDS011;12088;53.078;8.720;2024-02-28T09:05:57;35.13;;;16.53;;
23814;SDS011;12088;53.078;8.720;2024-02-28T09:08:22;31.87;;;15.93;;
23814;SDS011;12088;53.078;8.720;2024-02-28T09:10:49;33.13;;;15.87;;
23814;SDS011;12088;53.078;8.720;2024-02-28T09:13:15;35.07;;;17.47;;
23814;SDS011;12088;53.078;8.720;2024-02-28T09:15:43;33.17;;;16.70;;
23814;SDS011;12088;53.078;8.720;2024-02-28T09:18:09;34.47;;;17.60;;
23814;SDS011;12088;53.078;8.720;2024-02-28T09:20:35;34.67;;;17.13;;
23814;SDS011;12088;53.078;8.720;2024-02-28T09:23:01;32.87;;;15.80;;
23814;SDS011;12088;53.078;8.720;2024-02-28T09:25:27;34.30;;;16.90;;
23814;SDS011;12088;53.078;8.720;2024-02-28T09:27:53;33.87;;;16.83;;
23814;SDS011;12088;53.078;8.720;2024-02-28T09:30:19;32.33;;;17.00;;
23814;SDS011;12088;53.078;8.720;2024-02-28T09:32:45;33.33;;;16.13;;
23814;SDS011;12088;53.078;8.720;2024-02-28T09:35:12;34.73;;;17.30;;
23814;SDS011;12088;53.078;8.720;2024-02-28T09:37:38;33.23;;;16.63;;
23814;SDS011;12088;53.078;8.720;2024-02-28T09:40:04;32.67;;;16.33;;
23814;SDS011;12088;53.078;8.720;2024-02-28T09:42:30;35.37;;;16.97;;
23814;SDS011;12088;53.078;8.720;2024-02-28T09:44:58;33.43;;;17.10;;
23814;SDS011;12088;53.078;8.720;2024-02-28T09:47:26;37.70;;;17.70;;
23814;SDS011;12088;53.078;8.720;2024-02-28T09:49:52;33.70;;;17.37;;
23814;SDS011;12088;53.078;8.720;2024-02-28T09:52:19;34.97;;;17.63;;
23814;SDS011;12088;53.078;8.720;2024-02-28T09:54:46;32.40;;;16.63;;
23814;SDS011;12088;53.078;8.720;2024-02-28T09:57:12;37.13;;;18.27;;
23814;SDS011;12088;53.078;8.720;2024-02-28T09:59:39;36.33;;;17.73;;
23814;SDS011;12088;53.078;8.720;2024-02-28T10:02:06;37.10;;;17.83;;
23814;SDS011;12088;53.078;8.720;2024-02-28T10:04:33;40.70;;;17.70;;
23814;SDS011;12088;53.078;8.720;2024-02-28T10:07:09;37.10;;;18.80;;
23814;SDS011;12088;53.078;8.720;2024-02-28T10:09:38;38.17;;;17.67;;
23814;SDS011;12088;53.078;8.720;2024-02-28T10:12:04;38.77;;;16.90;;
23814;SDS011;12088;53.078;8.720;2024-02-28T10:14:30;44.93;;;20.23;;
23814;SDS011;12088;53.078;8.720;2024-02-28T10:16:56;48.17;;;21.00;;
23814;SDS011;12088;53.078;8.720;2024-02-28T10:19:22;40.63;;;19.77;;
23814;SDS011;12088;53.078;8.720;2024-02-28T10:21:49;43.37;;;19.50;;
23814;SDS011;12088;53.078;8.720;2024-02-28T10:24:15;45.60;;;20.13;;
23814;SDS011;12088;53.078;8.720;2024-02-28T10:26:45;43.00;;;20.27;;
23814;SDS011;12088;53.078;8.720;2024-02-28T10:29:20;42.67;;;19.13;;
23814;SDS011;12088;53.078;8.720;2024-02-28T10:31:46;40.37;;;19.20;;
23814;SDS011;12088;53.078;8.720;2024-02-28T10:34:12;50.13;;;20.57;;
23814;SDS011;12088;53.078;8.720;2024-02-28T10:36:40;45.80;;;20.53;;
23814;SDS011;12088;53.078;8.720;2024-02-28T10:39:06;46.67;;;20.13;;
23814;SDS011;12088;53.078;8.720;2024-02-28T10:41:34;44.97;;;20.33;;
23814;SDS011;12088;53.078;8.720;2024-02-28T10:44:01;42.60;;;19.57;;
23814;SDS011;12088;53.078;8.720;2024-02-28T10:46:27;47.97;;;21.73;;
23814;SDS011;12088;53.078;8.720;2024-02-28T10:48:53;45.83;;;20.40;;
23814;SDS011;12088;53.078;8.720;2024-02-28T10:51:25;51.37;;;22.47;;
23814;SDS011;12088;53.078;8.720;2024-02-28T10:56:36;48.90;;;19.73;;
23814;SDS011;12088;53.078;8.720;2024-02-28T10:59:03;49.77;;;21.50;;
23814;SDS011;12088;53.078;8.720;2024-02-28T11:01:31;49.87;;;21.73;;
23814;SDS011;12088;53.078;8.720;2024-02-28T11:03:58;46.83;;;20.07;;
23814;SDS011;12088;53.078;8.720;2024-02-28T11:06:24;50.37;;;21.47;;
23814;SDS011;12088;53.078;8.720;2024-02-28T11:08:51;47.47;;;20.70;;
23814;SDS011;12088;53.078;8.720;2024-02-28T11:11:21;46.70;;;20.50;;
23814;SDS011;12088;53.078;8.720;2024-02-28T11:13:54;49.90;;;21.57;;
23814;SDS011;12088;53.078;8.720;2024-02-28T11:18:52;53.97;;;22.70;;
23814;SDS011;12088;53.078;8.720;2024-02-28T11:21:18;52.60;;;21.30;;
23814;SDS011;12088;53.078;8.720;2024-02-28T11:23:48;57.10;;;22.47;;
23814;SDS011;12088;53.078;8.720;2024-02-28T11:26:14;61.50;;;22.77;;
23814;SDS011;12088;53.078;8.720;2024-02-28T11:28:40;53.13;;;23.13;;
23814;SDS011;12088;53.078;8.720;2024-02-28T11:31:06;64.00;;;23.63;;
23814;SDS011;12088;53.078;8.720;2024-02-28T11:33:32;58.73;;;22.47;;
23814;SDS011;12088;53.078;8.720;2024-02-28T11:35:58;57.63;;;22.90;;
23814;SDS011;12088;53.078;8.720;2024-02-28T11:38:27;56.87;;;23.23;;
23814;SDS011;12088;53.078;8.720;2024-02-28T11:40:53;53.77;;;22.90;;
23814;SDS011;12088;53.078;8.720;2024-02-28T11:43:23;56.50;;;22.47;;
23814;SDS011;12088;53.078;8.720;2024-02-28T11:45:49;58.70;;;23.30;;
23814;SDS011;12088;53.078;8.720;2024-02-28T11:48:15;57.30;;;22.37;;
23814;SDS011;12088;53.078;8.720;2024-02-28T11:50:45;47.93;;;20.30;;
23814;SDS011;12088;53.078;8.720;2024-02-28T11:53:20;50.97;;;21.33;;
23814;SDS011;12088;53.078;8.720;2024-02-28T11:55:46;53.60;;;22.93;;
23814;SDS011;12088;53.078;8.720;2024-02-28T11:58:13;56.37;;;22.47;;
23814;SDS011;12088;53.078;8.720;2024-02-28T12:00:48;51.93;;;22.70;;
23814;SDS011;12088;53.078;8.720;2024-02-28T12:03:14;52.10;;;21.27;;
23814;SDS011;12088;53.078;8.720;2024-02-28T12:05:42;58.00;;;23.37;;
23814;SDS011;12088;53.078;8.720;2024-02-28T12:08:10;49.40;;;21.03;;
23814;SDS011;12088;53.078;8.720;2024-02-28T12:10:36;52.97;;;22.87;;
23814;SDS011;12088;53.078;8.720;2024-02-28T12:13:02;53.30;;;23.50;;
23814;SDS011;12088;53.078;8.720;2024-02-28T12:15:29;52.43;;;21.40;;
23814;SDS011;12088;53.078;8.720;2024-02-28T12:17:55;54.70;;;24.10;;
23814;SDS011;12088;53.078;8.720;2024-02-28T12:20:23;51.83;;;21.87;;
23814;SDS011;12088;53.078;8.720;2024-02-28T12:22:49;49.67;;;21.93;;
23814;SDS011;12088;53.078;8.720;2024-02-28T12:25:15;48.20;;;21.97;;
23814;SDS011;12088;53.078;8.720;2024-02-28T12:27:41;54.20;;;23.03;;
23814;SDS011;12088;53.078;8.720;2024-02-28T12:30:07;49.10;;;22.87;;
23814;SDS011;12088;53.078;8.720;2024-02-28T12:32:33;53.40;;;23.07;;
23814;SDS011;12088;53.078;8.720;2024-02-28T12:34:59;50.43;;;22.47;;
23814;SDS011;12088;53.078;8.720;2024-02-28T12:37:25;50.50;;;24.07;;
23814;SDS011;12088;53.078;8.720;2024-02-28T12:39:53;49.23;;;22.03;;
23814;SDS011;12088;53.078;8.720;2024-02-28T12:42:19;53.80;;;22.10;;
23814;SDS011;12088;53.078;8.720;2024-02-28T12:44:45;46.70;;;21.67;;
23814;SDS011;12088;53.078;8.720;2024-02-28T12:47:11;42.90;;;20.00;;
23814;SDS011;12088;53.078;8.720;2024-02-28T12:49:38;48.27;;;22.13;;
23814;SDS011;12088;53.078;8.720;2024-02-28T12:52:04;42.17;;;20.70;;
23814;SDS011;12088;53.078;8.720;2024-02-28T12:54:30;46.20;;;20.37;;
23814;SDS011;12088;53.078;8.720;2024-02-28T12:56:56;43.10;;;19.70;;
23814;SDS011;12088;53.078;8.720;2024-02-28T12:59:25;44.87;;;19.63;;
23814;SDS011;12088;53.078;8.720;2024-02-28T13:01:51;43.10;;;20.07;;
23814;SDS011;12088;53.078;8.720;2024-02-28T13:04:18;42.27;;;19.90;;
23814;SDS011;12088;53.078;8.720;2024-02-28T13:06:44;44.07;;;20.87;;
23814;SDS011;12088;53.078;8.720;2024-02-28T13:09:10;44.73;;;20.93;;
23814;SDS011;12088;53.078;8.720;2024-02-28T13:11:39;44.77;;;21.03;;
23814;SDS011;12088;53.078;8.720;2024-02-28T13:14:06;49.63;;;22.40;;
23814;SDS011;12088;53.078;8.720;2024-02-28T13:16:33;42.40;;;21.70;;
23814;SDS011;12088;53.078;8.720;2024-02-28T13:19:00;44.27;;;21.63;;
23814;SDS011;12088;53.078;8.720;2024-02-28T13:21:26;46.33;;;22.27;;
23814;SDS011;12088;53.078;8.720;2024-02-28T13:23:52;45.87;;;21.80;;
23814;SDS011;12088;53.078;8.720;2024-02-28T13:26:21;44.63;;;21.23;;
23814;SDS011;12088;53.078;8.720;2024-02-28T13:28:47;48.13;;;22.20;;
23814;SDS011;12088;53.078;8.720;2024-02-28T13:31:19;45.80;;;21.23;;
23814;SDS011;12088;53.078;8.720;2024-02-28T13:33:45;42.27;;;20.73;;
23814;SDS011;12088;53.078;8.720;2024-02-28T13:36:16;41.17;;;20.17;;
23814;SDS011;12088;53.078;8.720;2024-02-28T13:38:45;42.30;;;20.63;;
23814;SDS011;12088;53.078;8.720;2024-02-28T13:41:12;42.33;;;21.03;;
23814;SDS011;12088;53.078;8.720;2024-02-28T13:43:38;44.70;;;21.73;;
23814;SDS011;12088;53.078;8.720;2024-02-28T13:46:05;40.87;;;21.00;;
23814;SDS011;12088;53.078;8.720;2024-02-28T13:48:31;47.73;;;23.07;;
23814;SDS011;12088;53.078;8.720;2024-02-28T13:50:58;43.20;;;21.33;;
23814;SDS011;12088;53.078;8.720;2024-02-28T13:53:25;49.13;;;21.90;;
23814;SDS011;12088;53.078;8.720;2024-02-28T13:55:51;42.77;;;21.30;;
23814;SDS011;12088;53.078;8.720;2024-02-28T13:58:17;51.47;;;23.63;;
23814;SDS011;12088;53.078;8.720;2024-02-28T14:00:43;51.70;;;23.10;;
23814;SDS011;12088;53.078;8.720;2024-02-28T14:03:10;51.33;;;24.30;;
23814;SDS011;12088;53.078;8.720;2024-02-28T14:05:36;47.57;;;23.07;;
23814;SDS011;12088;53.078;8.720;2024-02-28T14:08:02;45.33;;;21.50;;
23814;SDS011;12088;53.078;8.720;2024-02-28T14:10:29;48.63;;;24.67;;
23814;SDS011;12088;53.078;8.720;2024-02-28T14:12:55;47.60;;;24.17;;
23814;SDS011;12088;53.078;8.720;2024-02-28T14:15:21;45.93;;;24.30;;
23814;SDS011;12088;53.078;8.720;2024-02-28T14:17:48;48.67;;;24.30;;
23814;SDS011;12088;53.078;8.720;2024-02-28T14:20:14;48.67;;;23.93;;
23814;SDS011;12088;53.078;8.720;2024-02-28T14:22:40;50.03;;;24.50;;